createdAt,value
2017-12-31T00:01:01.402Z,1.18
2017-12-31T00:03:28.980Z,1.11
2017-12-31T00:05:56.558Z,1.38
2017-12-31T00:08:24.282Z,1.30
2017-12-31T00:10:51.889Z,1.18
2017-12-31T00:13:19.481Z,1.13
2017-12-31T00:15:47.105Z,1.14
2017-12-31T00:18:14.670Z,1.14
2017-12-31T00:20:42.313Z,1.11
2017-12-31T00:23:09.923Z,1.10
2017-12-31T00:25:37.496Z,1.13
2017-12-31T00:28:05.099Z,1.07
2017-12-31T00:30:32.716Z,0.88
2017-12-31T00:33:00.282Z,1.02
2017-12-31T00:35:27.855Z,1.11
2017-12-31T00:37:55.487Z,1.11
2017-12-31T00:40:24.131Z,1.06
2017-12-31T00:42:51.701Z,1.06
2017-12-31T00:45:19.314Z,0.92
2017-12-31T00:47:46.883Z,0.90
2017-12-31T00:50:14.466Z,0.71
2017-12-31T00:52:42.096Z,0.55
2017-12-31T00:55:09.674Z,0.78
2017-12-31T00:57:37.244Z,0.87
2017-12-31T01:00:04.868Z,0.75
2017-12-31T01:02:32.475Z,0.66
2017-12-31T01:05:00.131Z,0.45
2017-12-31T01:07:27.748Z,0.30
2017-12-31T01:09:55.344Z,0.31
2017-12-31T01:12:23.120Z,0.34
2017-12-31T01:14:50.736Z,0.45
2017-12-31T01:17:18.309Z,0.31
2017-12-31T01:19:45.889Z,0.50
2017-12-31T01:22:13.508Z,0.45
2017-12-31T01:24:41.098Z,0.30
2017-12-31T01:27:08.727Z,0.19
2017-12-31T01:29:36.348Z,0.40
2017-12-31T01:32:03.932Z,0.26
2017-12-31T01:34:31.522Z,0.40
2017-12-31T01:36:59.133Z,0.21
2017-12-31T01:39:26.716Z,0.01
2017-12-31T01:41:54.297Z,-0.01
2017-12-31T01:44:22.491Z,0.01
2017-12-31T01:46:50.055Z,-0.10
2017-12-31T01:49:17.656Z,-0.18
2017-12-31T01:51:45.272Z,-0.27
2017-12-31T01:54:12.853Z,-0.41
2017-12-31T01:56:40.449Z,-0.20
2017-12-31T01:59:08.064Z,0.08
2017-12-31T02:01:35.648Z,-0.11
2017-12-31T02:04:03.232Z,-0.21
2017-12-31T02:06:30.864Z,0.01
2017-12-31T02:08:58.437Z,-0.10
2017-12-31T02:11:26.062Z,-0.31
2017-12-31T02:13:54.579Z,-0.37
2017-12-31T02:16:22.169Z,-0.46
2017-12-31T02:18:49.745Z,-0.50
2017-12-31T02:21:17.374Z,-0.04
2017-12-31T02:23:44.953Z,0.17
2017-12-31T02:26:12.547Z,-0.07
2017-12-31T02:28:40.175Z,-0.16
2017-12-31T02:31:07.767Z,0.02
2017-12-31T02:33:35.345Z,0.01
2017-12-31T02:36:02.990Z,0.00
2017-12-31T02:38:30.577Z,-0.19
2017-12-31T02:40:59.068Z,-0.06
2017-12-31T02:43:26.695Z,-0.24
2017-12-31T02:45:54.277Z,-0.37
2017-12-31T02:48:21.872Z,-0.52
2017-12-31T02:50:49.607Z,-0.44
2017-12-31T02:53:17.224Z,-0.24
2017-12-31T02:55:44.813Z,-0.37
2017-12-31T02:58:12.429Z,-0.62
2017-12-31T03:00:40.022Z,-0.78
2017-12-31T03:03:07.608Z,-0.83
2017-12-31T03:05:35.235Z,-0.61
2017-12-31T03:08:02.817Z,-0.43
2017-12-31T03:10:30.380Z,-0.65
2017-12-31T03:12:58.025Z,-0.85
2017-12-31T03:15:25.651Z,-0.98
2017-12-31T03:17:53.318Z,-0.94
2017-12-31T03:20:20.991Z,-0.69
2017-12-31T03:22:48.590Z,-0.53
2017-12-31T03:25:16.169Z,-0.60
2017-12-31T03:27:43.789Z,-0.85
2017-12-31T03:30:11.388Z,-0.90
2017-12-31T03:32:38.977Z,-0.78
2017-12-31T03:35:06.596Z,-0.85
2017-12-31T03:37:34.171Z,-0.85
2017-12-31T03:40:01.761Z,-0.89
2017-12-31T03:42:29.405Z,-0.79
2017-12-31T03:44:57.003Z,-0.88
2017-12-31T03:47:24.593Z,-1.05
2017-12-31T03:49:52.228Z,-1.18
2017-12-31T03:52:19.827Z,-1.27
2017-12-31T03:54:47.416Z,-1.28
2017-12-31T03:57:15.046Z,-0.97
2017-12-31T03:59:42.630Z,-0.88
2017-12-31T04:02:10.231Z,-1.02
2017-12-31T04:04:37.853Z,-1.18
2017-12-31T04:07:05.451Z,-1.26
2017-12-31T04:09:33.041Z,-1.24
2017-12-31T04:12:00.665Z,-1.28
2017-12-31T04:14:28.249Z,-0.82
2017-12-31T04:16:55.844Z,-1.05
2017-12-31T04:19:23.460Z,-1.25
2017-12-31T04:21:51.032Z,-1.10
2017-12-31T04:24:18.614Z,-1.20
2017-12-31T04:26:46.229Z,-1.32
2017-12-31T04:29:13.821Z,-1.46
2017-12-31T04:31:41.414Z,-1.57
2017-12-31T04:34:09.038Z,-1.57
2017-12-31T04:36:36.625Z,-1.58
2017-12-31T04:39:04.300Z,-1.50
2017-12-31T04:41:31.936Z,-1.42
2017-12-31T04:43:59.540Z,-1.51
2017-12-31T04:46:27.133Z,-1.61
2017-12-31T04:48:54.754Z,-1.60
2017-12-31T04:51:22.344Z,-1.60
2017-12-31T04:53:49.928Z,-1.52
2017-12-31T04:56:17.561Z,-1.59
2017-12-31T04:58:45.159Z,-1.70
2017-12-31T05:01:12.737Z,-1.60
2017-12-31T05:03:40.347Z,-1.27
2017-12-31T05:06:07.940Z,-1.37
2017-12-31T05:08:35.532Z,-1.53
2017-12-31T05:11:03.156Z,-1.66
2017-12-31T05:13:30.740Z,-1.42
2017-12-31T05:15:58.330Z,-1.16
2017-12-31T05:18:26.003Z,-1.05
2017-12-31T05:20:53.595Z,-1.21
2017-12-31T05:23:21.182Z,-1.31
2017-12-31T05:25:48.817Z,-1.58
2017-12-31T05:28:16.405Z,-1.79
2017-12-31T05:30:43.997Z,-1.95
2017-12-31T05:33:11.630Z,-1.91
2017-12-31T05:35:39.219Z,-1.67
2017-12-31T05:38:06.847Z,-1.72
2017-12-31T05:40:34.459Z,-1.56
2017-12-31T05:43:02.026Z,-1.58
2017-12-31T05:45:29.613Z,-1.74
2017-12-31T05:47:57.240Z,-1.75
2017-12-31T05:50:24.824Z,-1.81
2017-12-31T05:52:52.396Z,-1.82
2017-12-31T05:55:20.028Z,-1.63
2017-12-31T05:57:47.616Z,-1.59
2017-12-31T06:00:15.200Z,-1.70
2017-12-31T06:02:42.824Z,-1.60
2017-12-31T06:05:10.418Z,-1.69
2017-12-31T06:07:38.007Z,-1.86
2017-12-31T06:10:05.628Z,-2.00
2017-12-31T06:12:33.228Z,-1.90
2017-12-31T06:15:00.820Z,-1.76
2017-12-31T06:17:28.520Z,-1.58
2017-12-31T06:19:56.113Z,-1.50
2017-12-31T06:22:23.705Z,-1.49
2017-12-31T06:24:51.335Z,-1.55
2017-12-31T06:27:18.950Z,-1.53
2017-12-31T06:29:46.537Z,-1.60
2017-12-31T06:32:14.193Z,-1.59
2017-12-31T06:34:41.774Z,-1.56
2017-12-31T06:37:09.358Z,-1.50
2017-12-31T06:39:36.979Z,-1.37
2017-12-31T06:42:04.575Z,-1.29
2017-12-31T06:44:32.150Z,-1.14
2017-12-31T06:46:59.771Z,-0.62
2017-12-31T06:49:27.352Z,0.20
2017-12-31T06:51:54.948Z,1.55
2017-12-31T06:54:22.560Z,2.59
2017-12-31T06:56:50.136Z,3.52
2017-12-31T06:59:17.756Z,4.40
2017-12-31T07:01:45.367Z,5.12
2017-12-31T07:04:12.936Z,5.84
2017-12-31T07:06:40.500Z,6.55
2017-12-31T07:09:08.110Z,7.13
2017-12-31T07:11:35.700Z,7.33
2017-12-31T07:14:03.284Z,7.79
2017-12-31T07:16:30.914Z,8.11
2017-12-31T07:18:58.509Z,8.30
2017-12-31T07:21:26.088Z,8.37
2017-12-31T07:23:53.703Z,8.84
2017-12-31T07:26:21.270Z,9.55
2017-12-31T07:28:48.857Z,9.78
2017-12-31T07:31:16.481Z,10.27
2017-12-31T07:33:44.068Z,10.19
2017-12-31T07:36:11.661Z,10.25
2017-12-31T07:38:39.287Z,10.54
2017-12-31T07:41:06.872Z,9.70
2017-12-31T07:43:34.461Z,9.31
2017-12-31T07:46:02.111Z,8.81
2017-12-31T07:48:29.681Z,8.32
2017-12-31T07:50:57.270Z,7.55
2017-12-31T07:53:25.387Z,7.16
2017-12-31T07:55:52.974Z,7.09
2017-12-31T07:58:20.547Z,7.23
2017-12-31T08:00:48.168Z,7.50
2017-12-31T08:03:15.745Z,8.05
2017-12-31T08:05:43.333Z,8.17
2017-12-31T08:08:10.995Z,8.08
2017-12-31T08:10:38.593Z,8.08
2017-12-31T08:13:06.186Z,8.36
2017-12-31T08:15:33.861Z,8.07
2017-12-31T08:18:01.446Z,8.25
2017-12-31T08:20:29.029Z,7.86
2017-12-31T08:22:56.645Z,7.75
2017-12-31T08:25:24.228Z,7.50
2017-12-31T08:27:51.816Z,7.07
2017-12-31T08:30:19.417Z,6.59
2017-12-31T08:32:47.051Z,6.35
2017-12-31T08:35:14.622Z,6.08
2017-12-31T08:37:42.234Z,6.06
2017-12-31T08:40:09.813Z,6.18
2017-12-31T08:42:37.394Z,6.31
2017-12-31T08:45:05.036Z,6.32
2017-12-31T08:47:32.637Z,6.48
2017-12-31T08:50:00.215Z,6.52
2017-12-31T08:52:27.824Z,6.52
2017-12-31T08:54:55.564Z,6.64
2017-12-31T08:57:23.138Z,6.63
2017-12-31T08:59:50.770Z,6.60
2017-12-31T09:02:18.344Z,6.35
2017-12-31T09:04:45.928Z,6.21
2017-12-31T09:07:13.704Z,6.12
2017-12-31T09:09:41.334Z,5.94
2017-12-31T09:12:08.909Z,5.96
2017-12-31T09:14:36.568Z,6.04
2017-12-31T09:17:04.129Z,6.04
2017-12-31T09:19:31.693Z,6.16
2017-12-31T09:21:59.291Z,6.30
2017-12-31T09:24:26.852Z,6.57
2017-12-31T09:26:54.416Z,6.72
2017-12-31T09:29:22.040Z,6.86
2017-12-31T09:31:49.621Z,6.95
2017-12-31T09:34:17.187Z,7.13
2017-12-31T09:36:44.793Z,7.40
2017-12-31T09:39:12.370Z,7.69
2017-12-31T09:41:39.951Z,7.82
2017-12-31T09:44:07.573Z,7.96
2017-12-31T09:46:35.154Z,8.11
2017-12-31T09:49:02.749Z,7.99
2017-12-31T09:51:30.368Z,8.04
2017-12-31T09:53:57.972Z,8.11
2017-12-31T09:56:25.567Z,8.37
2017-12-31T09:58:53.208Z,8.68
2017-12-31T10:01:20.793Z,8.80
2017-12-31T10:03:48.362Z,8.98
2017-12-31T10:06:16.025Z,9.19
2017-12-31T10:08:43.628Z,9.14
2017-12-31T10:11:11.203Z,9.25
2017-12-31T10:13:38.841Z,9.36
2017-12-31T10:16:06.557Z,9.20
2017-12-31T10:18:34.161Z,9.36
2017-12-31T10:21:01.832Z,9.68
2017-12-31T10:23:29.418Z,10.10
2017-12-31T10:25:57.014Z,10.29
2017-12-31T10:28:24.620Z,10.26
2017-12-31T10:30:52.204Z,10.29
2017-12-31T10:33:19.788Z,10.28
2017-12-31T10:35:47.392Z,10.56
2017-12-31T10:38:14.970Z,10.51
2017-12-31T10:40:42.583Z,10.94
2017-12-31T10:43:10.222Z,11.27
2017-12-31T10:45:37.936Z,12.04
2017-12-31T10:48:05.518Z,12.85
2017-12-31T10:50:33.154Z,13.30
2017-12-31T10:53:00.747Z,14.37
2017-12-31T10:55:28.319Z,14.88
2017-12-31T10:57:55.935Z,14.53
2017-12-31T11:00:23.547Z,14.50
2017-12-31T11:02:51.137Z,14.57
2017-12-31T11:05:18.753Z,15.20
2017-12-31T11:07:46.324Z,16.28
2017-12-31T11:10:13.938Z,16.87
2017-12-31T11:12:41.679Z,16.85
2017-12-31T11:15:09.255Z,17.34
2017-12-31T11:17:37.156Z,17.79
2017-12-31T11:20:04.839Z,18.28
2017-12-31T11:22:35.519Z,18.02
2017-12-31T11:25:05.230Z,17.48
2017-12-31T11:27:38.012Z,17.34
2017-12-31T11:30:10.769Z,16.41
2017-12-31T11:32:42.417Z,16.48
2017-12-31T11:35:14.744Z,16.31
2017-12-31T11:37:47.405Z,16.07
2017-12-31T11:40:18.970Z,16.20
2017-12-31T11:42:50.179Z,16.53
2017-12-31T11:45:22.010Z,16.28
2017-12-31T11:47:54.005Z,16.08
2017-12-31T11:50:21.982Z,16.53
2017-12-31T11:52:53.632Z,16.94
2017-12-31T11:55:25.183Z,17.43
2017-12-31T11:57:52.952Z,18.14
2017-12-31T12:00:20.551Z,18.71
2017-12-31T12:02:48.147Z,19.53
2017-12-31T12:05:15.714Z,19.80
2017-12-31T12:07:43.291Z,19.90
2017-12-31T12:10:10.908Z,19.20
2017-12-31T12:12:38.480Z,18.57
2017-12-31T12:15:06.064Z,17.94
2017-12-31T12:17:33.671Z,17.06
2017-12-31T12:20:01.252Z,16.84
2017-12-31T12:22:28.821Z,16.48
2017-12-31T12:24:56.428Z,16.05
2017-12-31T12:27:23.978Z,15.74
2017-12-31T12:29:51.539Z,15.42
2017-12-31T12:32:19.146Z,15.22
2017-12-31T12:34:46.710Z,14.83
2017-12-31T12:37:14.303Z,14.98
2017-12-31T12:39:41.918Z,15.17
2017-12-31T12:42:09.494Z,15.23
2017-12-31T12:44:37.069Z,15.54
2017-12-31T12:47:04.670Z,15.81
2017-12-31T12:49:32.249Z,16.01
2017-12-31T12:51:59.867Z,16.29
2017-12-31T12:54:27.675Z,16.59
2017-12-31T12:56:55.267Z,16.39
2017-12-31T12:59:22.836Z,16.31
2017-12-31T13:01:50.461Z,15.93
2017-12-31T13:04:18.025Z,15.84
2017-12-31T13:06:45.643Z,15.83
2017-12-31T13:09:13.258Z,15.59
2017-12-31T13:11:40.837Z,15.53
2017-12-31T13:14:08.412Z,15.16
2017-12-31T13:16:36.019Z,14.94
2017-12-31T13:19:03.596Z,14.51
2017-12-31T13:21:31.253Z,14.11
2017-12-31T13:23:58.849Z,13.75
2017-12-31T13:26:26.444Z,13.26
2017-12-31T13:28:54.002Z,13.00
2017-12-31T13:31:21.649Z,12.87
2017-12-31T13:33:49.231Z,12.68
2017-12-31T13:36:16.808Z,12.60
2017-12-31T13:38:44.416Z,12.45
2017-12-31T13:41:11.997Z,12.65
2017-12-31T13:43:39.561Z,12.88
2017-12-31T13:46:07.239Z,12.98
2017-12-31T13:48:34.823Z,12.99
2017-12-31T13:51:02.413Z,12.88
2017-12-31T13:53:30.029Z,13.13
2017-12-31T13:55:57.629Z,13.45
2017-12-31T13:58:25.208Z,13.48
2017-12-31T14:00:52.823Z,13.18
2017-12-31T14:03:20.399Z,12.80
2017-12-31T14:05:47.968Z,12.43
2017-12-31T14:08:15.607Z,11.94
2017-12-31T14:10:43.176Z,11.27
2017-12-31T14:13:10.761Z,10.94
2017-12-31T14:15:38.371Z,10.80
2017-12-31T14:18:05.943Z,10.46
2017-12-31T14:20:33.506Z,10.05
2017-12-31T14:23:01.140Z,9.71
2017-12-31T14:25:28.735Z,9.45
2017-12-31T14:27:56.305Z,9.13
2017-12-31T14:30:23.979Z,8.80
2017-12-31T14:32:51.550Z,8.61
2017-12-31T14:35:19.131Z,8.39
2017-12-31T14:37:46.723Z,8.09
2017-12-31T14:40:14.288Z,7.76
2017-12-31T14:42:41.849Z,7.64
2017-12-31T14:45:09.458Z,7.45
2017-12-31T14:47:37.029Z,7.26
2017-12-31T14:50:04.601Z,7.09
2017-12-31T14:52:32.388Z,6.90
2017-12-31T14:54:59.985Z,6.62
2017-12-31T14:57:27.597Z,6.44
2017-12-31T14:59:55.220Z,6.31
2017-12-31T15:02:22.799Z,6.24
2017-12-31T15:04:50.388Z,6.12
2017-12-31T15:07:18.013Z,5.97
2017-12-31T15:09:45.599Z,5.92
2017-12-31T15:12:13.173Z,5.71
2017-12-31T15:14:40.784Z,5.53
2017-12-31T15:17:08.363Z,5.49
2017-12-31T15:19:35.933Z,5.36
2017-12-31T15:22:03.557Z,5.28
2017-12-31T15:24:31.144Z,5.17
2017-12-31T15:26:58.799Z,5.04
2017-12-31T15:29:26.410Z,4.92
2017-12-31T15:31:53.979Z,4.81
2017-12-31T15:34:21.551Z,4.71
2017-12-31T15:36:49.175Z,4.58
2017-12-31T15:39:16.745Z,4.52
2017-12-31T15:41:44.301Z,4.43
2017-12-31T15:44:11.910Z,4.30
2017-12-31T15:46:39.485Z,4.17
2017-12-31T15:49:07.038Z,4.09
2017-12-31T15:51:34.674Z,4.18
2017-12-31T15:54:02.229Z,4.02
2017-12-31T15:56:29.836Z,3.95
2017-12-31T15:58:57.434Z,3.85
2017-12-31T16:01:24.983Z,3.82
2017-12-31T16:03:52.553Z,3.73
2017-12-31T16:06:20.206Z,3.71
2017-12-31T16:08:47.765Z,3.65
2017-12-31T16:11:15.321Z,3.57
2017-12-31T16:13:42.939Z,3.52
2017-12-31T16:16:10.488Z,3.49
2017-12-31T16:18:38.052Z,3.53
2017-12-31T16:21:05.643Z,3.53
2017-12-31T16:23:33.223Z,3.51
2017-12-31T16:26:00.847Z,3.47
2017-12-31T16:28:28.458Z,3.48
2017-12-31T16:30:56.017Z,3.47
2017-12-31T16:33:23.593Z,3.47
2017-12-31T16:35:51.229Z,3.44
2017-12-31T16:38:18.785Z,3.41
2017-12-31T16:40:46.366Z,3.43
2017-12-31T16:43:13.964Z,3.36
2017-12-31T16:45:41.591Z,3.23
2017-12-31T16:48:09.137Z,3.17
2017-12-31T16:50:36.785Z,3.15
2017-12-31T16:53:04.352Z,3.13
2017-12-31T16:55:31.907Z,3.08
2017-12-31T16:57:59.557Z,3.03
2017-12-31T17:00:27.122Z,2.97
2017-12-31T17:02:54.682Z,2.88
2017-12-31T17:05:22.280Z,2.78
2017-12-31T17:07:49.862Z,2.87
2017-12-31T17:10:17.483Z,2.84
2017-12-31T17:12:45.096Z,2.82
2017-12-31T17:15:12.671Z,2.78
2017-12-31T17:17:40.245Z,2.78
2017-12-31T17:20:07.842Z,2.82
2017-12-31T17:22:35.416Z,2.78
2017-12-31T17:25:02.967Z,2.75
2017-12-31T17:27:30.546Z,2.72
2017-12-31T17:29:58.160Z,2.71
2017-12-31T17:32:25.723Z,2.92
2017-12-31T17:34:53.339Z,3.03
2017-12-31T17:37:20.912Z,3.04
2017-12-31T17:39:48.462Z,2.94
2017-12-31T17:42:16.083Z,2.99
2017-12-31T17:44:43.645Z,2.91
2017-12-31T17:47:11.220Z,2.68
2017-12-31T17:49:38.804Z,2.52
2017-12-31T17:52:06.406Z,2.42
2017-12-31T17:54:34.006Z,2.40
2017-12-31T17:57:01.592Z,2.32
2017-12-31T17:59:29.159Z,2.28
2017-12-31T18:01:56.722Z,2.19
2017-12-31T18:04:24.319Z,2.16
2017-12-31T18:06:51.880Z,2.19
2017-12-31T18:09:19.444Z,2.25
2017-12-31T18:11:47.112Z,2.24
2017-12-31T18:14:14.662Z,2.14
2017-12-31T18:16:42.224Z,2.09
2017-12-31T18:19:09.821Z,1.95
2017-12-31T18:21:37.371Z,2.19
2017-12-31T18:24:04.923Z,2.44
2017-12-31T18:26:32.518Z,2.71
2017-12-31T18:29:00.085Z,2.81
2017-12-31T18:31:27.646Z,2.90
2017-12-31T18:33:55.253Z,3.09
2017-12-31T18:36:22.809Z,3.30
2017-12-31T18:38:50.373Z,3.50
2017-12-31T18:41:17.988Z,3.55
2017-12-31T18:43:45.593Z,3.47
2017-12-31T18:46:13.156Z,3.56
2017-12-31T18:48:40.765Z,3.67
2017-12-31T18:51:08.318Z,3.74
2017-12-31T18:53:35.882Z,3.81
2017-12-31T18:56:03.467Z,3.92
2017-12-31T18:58:31.056Z,3.94
2017-12-31T19:00:58.629Z,3.87
2017-12-31T19:03:26.214Z,3.76
2017-12-31T19:05:53.782Z,3.64
2017-12-31T19:08:21.341Z,3.64
2017-12-31T19:10:48.930Z,3.70
2017-12-31T19:13:16.511Z,3.76
2017-12-31T19:15:44.077Z,3.73
2017-12-31T19:18:11.677Z,3.67
2017-12-31T19:20:39.258Z,3.76
2017-12-31T19:23:06.820Z,3.83
2017-12-31T19:25:34.416Z,3.81
2017-12-31T19:28:01.992Z,3.67
2017-12-31T19:30:29.622Z,3.56
2017-12-31T19:32:57.240Z,3.41
2017-12-31T19:35:24.801Z,3.31
2017-12-31T19:37:52.371Z,3.21
2017-12-31T19:40:19.987Z,3.16
2017-12-31T19:42:47.559Z,3.30
2017-12-31T19:45:15.132Z,3.34
2017-12-31T19:47:42.743Z,3.22
2017-12-31T19:50:10.306Z,3.10
2017-12-31T19:52:37.855Z,3.04
2017-12-31T19:55:05.448Z,3.07
2017-12-31T19:57:33.020Z,3.02
2017-12-31T20:00:00.579Z,2.96
2017-12-31T20:02:28.183Z,2.87
2017-12-31T20:04:55.778Z,2.85
2017-12-31T20:07:23.365Z,2.92
2017-12-31T20:09:50.963Z,2.95
2017-12-31T20:12:18.533Z,2.89
2017-12-31T20:14:46.104Z,2.81
2017-12-31T20:17:13.819Z,2.79
2017-12-31T20:19:41.380Z,2.71
2017-12-31T20:22:09.015Z,2.62
2017-12-31T20:24:36.607Z,2.53
2017-12-31T20:27:04.180Z,2.52
2017-12-31T20:29:31.799Z,2.64
2017-12-31T20:31:59.463Z,2.65
2017-12-31T20:34:27.018Z,2.59
2017-12-31T20:36:54.620Z,2.57
2017-12-31T20:39:22.238Z,2.56
2017-12-31T20:41:49.795Z,2.58
2017-12-31T20:44:17.406Z,2.64
2017-12-31T20:46:45.017Z,2.65
2017-12-31T20:49:12.585Z,2.79
2017-12-31T20:51:40.141Z,2.69
2017-12-31T20:54:07.736Z,2.70
2017-12-31T20:56:35.294Z,2.70
2017-12-31T20:59:02.842Z,2.63
2017-12-31T21:01:30.437Z,2.59
2017-12-31T21:03:57.987Z,2.52
2017-12-31T21:06:25.553Z,2.48
2017-12-31T21:08:53.177Z,2.68
2017-12-31T21:11:20.741Z,2.77
2017-12-31T21:13:48.319Z,2.78
2017-12-31T21:16:15.903Z,2.84
2017-12-31T21:18:43.476Z,2.79
2017-12-31T21:21:11.048Z,2.76
2017-12-31T21:23:38.641Z,2.95
2017-12-31T21:26:06.196Z,2.93
2017-12-31T21:28:33.769Z,2.94
2017-12-31T21:31:01.387Z,3.03
2017-12-31T21:33:29.129Z,3.11
2017-12-31T21:35:56.698Z,3.20
2017-12-31T21:38:24.316Z,3.32
2017-12-31T21:40:51.882Z,3.23
2017-12-31T21:43:19.573Z,3.14
2017-12-31T21:45:47.157Z,2.86
2017-12-31T21:48:14.735Z,2.64
2017-12-31T21:50:42.297Z,2.52
2017-12-31T21:53:09.906Z,2.57
2017-12-31T21:55:37.479Z,2.61
2017-12-31T21:58:05.049Z,2.86
2017-12-31T22:00:32.670Z,2.89
2017-12-31T22:03:00.251Z,2.90
2017-12-31T22:05:27.817Z,2.79
2017-12-31T22:07:55.425Z,2.79
2017-12-31T22:10:23.017Z,2.64
2017-12-31T22:12:50.619Z,2.57
2017-12-31T22:15:18.246Z,2.57
2017-12-31T22:17:45.813Z,2.53
2017-12-31T22:20:13.385Z,2.53
2017-12-31T22:22:41.009Z,2.62
2017-12-31T22:25:08.587Z,2.59
2017-12-31T22:27:36.163Z,2.46
2017-12-31T22:30:03.773Z,2.36
2017-12-31T22:32:31.345Z,2.22
2017-12-31T22:34:58.929Z,2.06
2017-12-31T22:37:26.536Z,1.96
2017-12-31T22:39:54.111Z,2.02
2017-12-31T22:42:21.681Z,2.14
2017-12-31T22:44:49.308Z,2.17
2017-12-31T22:47:16.869Z,2.04
2017-12-31T22:49:44.456Z,1.92
2017-12-31T22:52:12.066Z,1.84
2017-12-31T22:54:39.669Z,1.66
2017-12-31T22:57:07.240Z,1.54
2017-12-31T22:59:34.860Z,1.56
2017-12-31T23:02:02.454Z,1.58
2017-12-31T23:04:30.026Z,1.55
2017-12-31T23:06:57.632Z,1.69
2017-12-31T23:09:25.220Z,1.71
2017-12-31T23:11:52.792Z,1.62
2017-12-31T23:14:20.416Z,1.68
2017-12-31T23:16:47.969Z,1.69
2017-12-31T23:19:15.533Z,1.73
2017-12-31T23:21:43.136Z,1.68
2017-12-31T23:24:10.709Z,1.76
2017-12-31T23:26:38.276Z,1.67
2017-12-31T23:29:05.904Z,1.50
2017-12-31T23:31:33.453Z,1.46
2017-12-31T23:34:01.077Z,1.49
2017-12-31T23:36:28.676Z,1.40
2017-12-31T23:38:56.259Z,1.47
2017-12-31T23:41:23.823Z,1.37
2017-12-31T23:43:51.439Z,1.40
2017-12-31T23:46:19.081Z,1.42
2017-12-31T23:48:46.687Z,1.41
2017-12-31T23:51:14.288Z,1.44
2017-12-31T23:53:41.883Z,1.43
2017-12-31T23:56:09.450Z,1.35
2017-12-31T23:58:37.062Z,1.29
